sensor_id;sensor_type;location;lat;lon;timestamp;temperature;humidity
45729;DHT22;31439;53.512;10.206;2023-04-25T00:02:09;8.90;99.90
45729;DHT22;31439;53.512;10.206;2023-04-25T00:04:35;8.90;99.90
45729;DHT22;31439;53.512;10.206;2023-04-25T00:07:03;8.90;99.90
45729;DHT22;31439;53.512;10.206;2023-04-25T00:09:29;8.80;99.90
45729;DHT22;31439;53.512;10.206;2023-04-25T00:11:54;8.80;99.90
45729;DHT22;31439;53.512;10.206;2023-04-25T00:14:20;8.70;99.90
45729;DHT22;31439;53.512;10.206;2023-04-25T00:16:46;8.70;99.90
45729;DHT22;31439;53.512;10.206;2023-04-25T00:19:11;8.70;99.90
45729;DHT22;31439;53.512;10.206;2023-04-25T00:21:38;8.70;99.90
45729;DHT22;31439;53.512;10.206;2023-04-25T00:24:06;8.70;99.90
45729;DHT22;31439;53.512;10.206;2023-04-25T00:26:33;8.60;99.90
45729;DHT22;31439;53.512;10.206;2023-04-25T00:28:58;8.60;99.90
45729;DHT22;31439;53.512;10.206;2023-04-25T00:31:24;8.60;99.90
45729;DHT22;31439;53.512;10.206;2023-04-25T00:33:50;8.70;99.90
45729;DHT22;31439;53.512;10.206;2023-04-25T00:36:15;8.60;99.90
45729;DHT22;31439;53.512;10.206;2023-04-25T00:38:42;8.70;99.90
45729;DHT22;31439;53.512;10.206;2023-04-25T00:41:08;8.60;99.90
45729;DHT22;31439;53.512;10.206;2023-04-25T00:43:34;8.50;99.90
45729;DHT22;31439;53.512;10.206;2023-04-25T00:46:01;8.40;99.90
45729;DHT22;31439;53.512;10.206;2023-04-25T00:48:27;8.40;99.90
45729;DHT22;31439;53.512;10.206;2023-04-25T00:50:54;8.30;99.90
45729;DHT22;31439;53.512;10.206;2023-04-25T00:53:22;8.40;99.90
45729;DHT22;31439;53.512;10.206;2023-04-25T00:55:48;8.40;99.90
45729;DHT22;31439;53.512;10.206;2023-04-25T00:58:19;8.40;99.90
45729;DHT22;31439;53.512;10.206;2023-04-25T01:00:46;8.40;99.90
45729;DHT22;31439;53.512;10.206;2023-04-25T01:03:13;8.30;99.90
45729;DHT22;31439;53.512;10.206;2023-04-25T01:05:42;8.40;99.90
45729;DHT22;31439;53.512;10.206;2023-04-25T01:08:08;8.40;99.90
45729;DHT22;31439;53.512;10.206;2023-04-25T01:10:34;8.40;99.90
45729;DHT22;31439;53.512;10.206;2023-04-25T01:13:00;8.40;99.90
45729;DHT22;31439;53.512;10.206;2023-04-25T01:15:25;8.40;99.90
45729;DHT22;31439;53.512;10.206;2023-04-25T01:17:51;8.30;99.90
45729;DHT22;31439;53.512;10.206;2023-04-25T01:20:20;8.30;99.90
45729;DHT22;31439;53.512;10.206;2023-04-25T01:22:46;8.30;99.90
45729;DHT22;31439;53.512;10.206;2023-04-25T01:25:12;8.20;99.90
45729;DHT22;31439;53.512;10.206;2023-04-25T01:27:38;8.20;99.90
45729;DHT22;31439;53.512;10.206;2023-04-25T01:30:05;8.30;99.90
45729;DHT22;31439;53.512;10.206;2023-04-25T01:32:31;8.30;99.90
45729;DHT22;31439;53.512;10.206;2023-04-25T01:35:05;8.10;99.90
45729;DHT22;31439;53.512;10.206;2023-04-25T01:37:38;8.20;99.90
45729;DHT22;31439;53.512;10.206;2023-04-25T01:40:04;8.20;99.90
45729;DHT22;31439;53.512;10.206;2023-04-25T01:42:35;8.20;99.90
45729;DHT22;31439;53.512;10.206;2023-04-25T01:45:01;8.20;99.90
45729;DHT22;31439;53.512;10.206;2023-04-25T01:47:26;8.20;99.90
45729;DHT22;31439;53.512;10.206;2023-04-25T01:49:52;8.20;99.90
45729;DHT22;31439;53.512;10.206;2023-04-25T01:52:18;8.20;99.90
45729;DHT22;31439;53.512;10.206;2023-04-25T01:54:43;8.10;99.90
45729;DHT22;31439;53.512;10.206;2023-04-25T01:57:13;8.10;99.90
45729;DHT22;31439;53.512;10.206;2023-04-25T01:59:39;8.20;99.90
45729;DHT22;31439;53.512;10.206;2023-04-25T02:02:05;8.20;99.90
45729;DHT22;31439;53.512;10.206;2023-04-25T02:04:30;8.10;99.90
45729;DHT22;31439;53.512;10.206;2023-04-25T02:06:56;8.00;99.90
45729;DHT22;31439;53.512;10.206;2023-04-25T02:09:22;8.00;99.90
45729;DHT22;31439;53.512;10.206;2023-04-25T02:11:48;8.00;99.90
45729;DHT22;31439;53.512;10.206;2023-04-25T02:14:13;7.90;99.90
45729;DHT22;31439;53.512;10.206;2023-04-25T02:16:39;7.90;99.90
45729;DHT22;31439;53.512;10.206;2023-04-25T02:19:05;7.90;99.90
45729;DHT22;31439;53.512;10.206;2023-04-25T02:21:31;7.90;99.90
45729;DHT22;31439;53.512;10.206;2023-04-25T02:23:57;7.80;99.90
45729;DHT22;31439;53.512;10.206;2023-04-25T02:26:23;7.70;99.90
45729;DHT22;31439;53.512;10.206;2023-04-25T02:28:49;7.70;99.90
45729;DHT22;31439;53.512;10.206;2023-04-25T02:31:15;7.80;99.90
45729;DHT22;31439;53.512;10.206;2023-04-25T02:33:41;7.80;99.90
45729;DHT22;31439;53.512;10.206;2023-04-25T02:36:06;7.90;99.90
45729;DHT22;31439;53.512;10.206;2023-04-25T02:38:32;7.80;99.90
45729;DHT22;31439;53.512;10.206;2023-04-25T02:40:58;7.80;99.90
45729;DHT22;31439;53.512;10.206;2023-04-25T02:43:24;7.70;99.90
45729;DHT22;31439;53.512;10.206;2023-04-25T02:45:49;7.80;99.90
45729;DHT22;31439;53.512;10.206;2023-04-25T02:48:15;7.80;99.90
45729;DHT22;31439;53.512;10.206;2023-04-25T02:50:40;7.70;99.90
45729;DHT22;31439;53.512;10.206;2023-04-25T02:53:06;7.60;99.90
45729;DHT22;31439;53.512;10.206;2023-04-25T02:55:32;7.70;99.90
45729;DHT22;31439;53.512;10.206;2023-04-25T02:57:57;7.70;99.90
45729;DHT22;31439;53.512;10.206;2023-04-25T03:00:23;7.80;99.90
45729;DHT22;31439;53.512;10.206;2023-04-25T03:02:48;7.80;99.90
45729;DHT22;31439;53.512;10.206;2023-04-25T03:05:14;7.70;99.90
45729;DHT22;31439;53.512;10.206;2023-04-25T03:07:40;7.70;99.90
45729;DHT22;31439;53.512;10.206;2023-04-25T03:10:07;7.70;99.90
45729;DHT22;31439;53.512;10.206;2023-04-25T03:12:33;7.70;99.90
45729;DHT22;31439;53.512;10.206;2023-04-25T03:14:58;7.70;99.90
45729;DHT22;31439;53.512;10.206;2023-04-25T03:17:24;7.70;99.90
45729;DHT22;31439;53.512;10.206;2023-04-25T03:19:49;7.70;99.90
45729;DHT22;31439;53.512;10.206;2023-04-25T03:22:15;7.70;99.90
45729;DHT22;31439;53.512;10.206;2023-04-25T03:24:41;7.60;99.90
45729;DHT22;31439;53.512;10.206;2023-04-25T03:27:06;7.50;99.90
45729;DHT22;31439;53.512;10.206;2023-04-25T03:29:32;7.50;99.90
45729;DHT22;31439;53.512;10.206;2023-04-25T03:31:58;7.50;99.90
45729;DHT22;31439;53.512;10.206;2023-04-25T03:34:23;7.50;99.90
45729;DHT22;31439;53.512;10.206;2023-04-25T03:36:49;7.50;99.90
45729;DHT22;31439;53.512;10.206;2023-04-25T03:39:15;7.40;99.90
45729;DHT22;31439;53.512;10.206;2023-04-25T03:41:41;7.40;99.90
45729;DHT22;31439;53.512;10.206;2023-04-25T03:44:06;7.40;99.90
45729;DHT22;31439;53.512;10.206;2023-04-25T03:46:32;7.30;99.90
45729;DHT22;31439;53.512;10.206;2023-04-25T03:48:58;7.30;99.90
45729;DHT22;31439;53.512;10.206;2023-04-25T03:51:24;7.30;99.90
45729;DHT22;31439;53.512;10.206;2023-04-25T03:53:51;7.30;99.90
45729;DHT22;31439;53.512;10.206;2023-04-25T03:56:16;7.30;99.90
45729;DHT22;31439;53.512;10.206;2023-04-25T03:58:42;7.30;99.90
45729;DHT22;31439;53.512;10.206;2023-04-25T04:01:08;7.20;99.90
45729;DHT22;31439;53.512;10.206;2023-04-25T04:03:34;7.10;99.90
45729;DHT22;31439;53.512;10.206;2023-04-25T04:06:01;7.30;99.90
45729;DHT22;31439;53.512;10.206;2023-04-25T04:08:29;7.30;99.90
45729;DHT22;31439;53.512;10.206;2023-04-25T04:10:55;7.40;99.90
45729;DHT22;31439;53.512;10.206;2023-04-25T04:13:20;7.40;99.90
45729;DHT22;31439;53.512;10.206;2023-04-25T04:15:46;7.30;99.90
45729;DHT22;31439;53.512;10.206;2023-04-25T04:18:12;7.40;99.90
45729;DHT22;31439;53.512;10.206;2023-04-25T04:20:37;7.40;99.90
45729;DHT22;31439;53.512;10.206;2023-04-25T04:23:03;7.40;99.90
45729;DHT22;31439;53.512;10.206;2023-04-25T04:25:28;7.40;99.90
45729;DHT22;31439;53.512;10.206;2023-04-25T04:27:55;7.40;99.90
45729;DHT22;31439;53.512;10.206;2023-04-25T04:30:24;7.40;99.90
45729;DHT22;31439;53.512;10.206;2023-04-25T04:32:51;7.40;99.90
45729;DHT22;31439;53.512;10.206;2023-04-25T04:35:16;7.30;99.90
45729;DHT22;31439;53.512;10.206;2023-04-25T04:37:42;7.40;99.90
45729;DHT22;31439;53.512;10.206;2023-04-25T04:40:09;7.40;99.90
45729;DHT22;31439;53.512;10.206;2023-04-25T04:42:35;7.40;99.90
45729;DHT22;31439;53.512;10.206;2023-04-25T04:45:01;7.40;99.90
45729;DHT22;31439;53.512;10.206;2023-04-25T04:47:28;7.40;99.90
45729;DHT22;31439;53.512;10.206;2023-04-25T04:49:56;7.40;99.90
45729;DHT22;31439;53.512;10.206;2023-04-25T04:52:22;7.40;99.90
45729;DHT22;31439;53.512;10.206;2023-04-25T04:54:48;7.40;99.90
45729;DHT22;31439;53.512;10.206;2023-04-25T04:57:13;7.30;99.90
45729;DHT22;31439;53.512;10.206;2023-04-25T04:59:39;7.30;99.90
45729;DHT22;31439;53.512;10.206;2023-04-25T05:02:05;7.30;99.90
45729;DHT22;31439;53.512;10.206;2023-04-25T05:04:30;7.30;99.90
45729;DHT22;31439;53.512;10.206;2023-04-25T05:06:56;7.40;99.90
45729;DHT22;31439;53.512;10.206;2023-04-25T05:09:22;7.40;99.90
45729;DHT22;31439;53.512;10.206;2023-04-25T05:11:51;7.40;99.90
45729;DHT22;31439;53.512;10.206;2023-04-25T05:14:17;7.40;99.90
45729;DHT22;31439;53.512;10.206;2023-04-25T05:16:43;7.50;99.90
45729;DHT22;31439;53.512;10.206;2023-04-25T05:19:09;7.40;99.90
45729;DHT22;31439;53.512;10.206;2023-04-25T05:21:34;7.40;99.90
45729;DHT22;31439;53.512;10.206;2023-04-25T05:24:01;7.40;99.90
45729;DHT22;31439;53.512;10.206;2023-04-25T05:26:26;7.30;99.90
45729;DHT22;31439;53.512;10.206;2023-04-25T05:28:59;7.40;99.90
45729;DHT22;31439;53.512;10.206;2023-04-25T05:31:25;7.30;99.90
45729;DHT22;31439;53.512;10.206;2023-04-25T05:33:51;7.20;99.90
45729;DHT22;31439;53.512;10.206;2023-04-25T05:36:18;7.30;99.90
45729;DHT22;31439;53.512;10.206;2023-04-25T05:38:43;7.30;99.90
45729;DHT22;31439;53.512;10.206;2023-04-25T05:41:09;7.20;99.90
45729;DHT22;31439;53.512;10.206;2023-04-25T05:43:34;7.00;99.90
45729;DHT22;31439;53.512;10.206;2023-04-25T05:46:00;7.10;99.90
45729;DHT22;31439;53.512;10.206;2023-04-25T05:48:26;7.10;99.90
45729;DHT22;31439;53.512;10.206;2023-04-25T05:50:51;7.00;99.90
45729;DHT22;31439;53.512;10.206;2023-04-25T05:53:18;7.10;99.90
45729;DHT22;31439;53.512;10.206;2023-04-25T05:55:43;7.00;99.90
45729;DHT22;31439;53.512;10.206;2023-04-25T05:58:09;7.10;99.90
45729;DHT22;31439;53.512;10.206;2023-04-25T06:00:35;7.10;99.90
45729;DHT22;31439;53.512;10.206;2023-04-25T06:03:00;7.20;99.90
45729;DHT22;31439;53.512;10.206;2023-04-25T06:05:27;7.20;99.90
45729;DHT22;31439;53.512;10.206;2023-04-25T06:07:52;7.20;99.90
45729;DHT22;31439;53.512;10.206;2023-04-25T06:10:18;7.20;99.90
45729;DHT22;31439;53.512;10.206;2023-04-25T06:12:44;7.40;99.90
45729;DHT22;31439;53.512;10.206;2023-04-25T06:15:10;7.40;99.90
45729;DHT22;31439;53.512;10.206;2023-04-25T06:17:35;7.50;99.90
45729;DHT22;31439;53.512;10.206;2023-04-25T06:20:02;7.60;99.90
45729;DHT22;31439;53.512;10.206;2023-04-25T06:22:29;7.60;99.90
45729;DHT22;31439;53.512;10.206;2023-04-25T06:24:54;7.60;99.90
45729;DHT22;31439;53.512;10.206;2023-04-25T06:27:22;7.60;99.90
45729;DHT22;31439;53.512;10.206;2023-04-25T06:29:48;7.60;99.90
45729;DHT22;31439;53.512;10.206;2023-04-25T06:32:13;7.50;99.90
45729;DHT22;31439;53.512;10.206;2023-04-25T06:34:39;7.50;99.90
45729;DHT22;31439;53.512;10.206;2023-04-25T06:37:05;7.40;99.90
45729;DHT22;31439;53.512;10.206;2023-04-25T06:39:30;7.40;99.90
45729;DHT22;31439;53.512;10.206;2023-04-25T06:41:56;7.60;99.90
45729;DHT22;31439;53.512;10.206;2023-04-25T06:44:22;7.70;99.90
45729;DHT22;31439;53.512;10.206;2023-04-25T06:46:49;7.80;99.90
45729;DHT22;31439;53.512;10.206;2023-04-25T06:49:15;7.70;99.90
45729;DHT22;31439;53.512;10.206;2023-04-25T06:51:40;7.70;99.90
45729;DHT22;31439;53.512;10.206;2023-04-25T06:54:06;7.60;99.90
45729;DHT22;31439;53.512;10.206;2023-04-25T06:56:32;7.60;99.90
45729;DHT22;31439;53.512;10.206;2023-04-25T06:58:57;7.70;99.90
45729;DHT22;31439;53.512;10.206;2023-04-25T07:01:23;7.80;99.90
45729;DHT22;31439;53.512;10.206;2023-04-25T07:03:49;7.80;99.90
45729;DHT22;31439;53.512;10.206;2023-04-25T07:06:14;7.90;99.90
45729;DHT22;31439;53.512;10.206;2023-04-25T07:08:40;7.80;99.90
45729;DHT22;31439;53.512;10.206;2023-04-25T07:11:06;7.70;99.90
45729;DHT22;31439;53.512;10.206;2023-04-25T07:13:31;7.70;99.90
45729;DHT22;31439;53.512;10.206;2023-04-25T07:15:57;7.70;99.90
45729;DHT22;31439;53.512;10.206;2023-04-25T07:18:23;7.70;99.90
45729;DHT22;31439;53.512;10.206;2023-04-25T07:20:48;7.70;99.90
45729;DHT22;31439;53.512;10.206;2023-04-25T07:23:14;7.70;99.90
45729;DHT22;31439;53.512;10.206;2023-04-25T07:25:40;8.00;99.90
45729;DHT22;31439;53.512;10.206;2023-04-25T07:28:05;8.20;99.90
45729;DHT22;31439;53.512;10.206;2023-04-25T07:30:31;8.20;99.90
45729;DHT22;31439;53.512;10.206;2023-04-25T07:32:57;8.20;99.90
45729;DHT22;31439;53.512;10.206;2023-04-25T07:35:22;8.30;99.90
45729;DHT22;31439;53.512;10.206;2023-04-25T07:37:48;8.20;99.90
45729;DHT22;31439;53.512;10.206;2023-04-25T07:40:13;8.10;99.90
45729;DHT22;31439;53.512;10.206;2023-04-25T07:42:41;8.20;99.90
45729;DHT22;31439;53.512;10.206;2023-04-25T07:45:07;8.00;99.90
45729;DHT22;31439;53.512;10.206;2023-04-25T07:47:34;8.00;99.90
45729;DHT22;31439;53.512;10.206;2023-04-25T07:50:00;7.90;99.90
45729;DHT22;31439;53.512;10.206;2023-04-25T07:52:26;7.80;99.90
45729;DHT22;31439;53.512;10.206;2023-04-25T07:54:52;7.80;99.90
45729;DHT22;31439;53.512;10.206;2023-04-25T07:57:17;7.80;99.90
45729;DHT22;31439;53.512;10.206;2023-04-25T07:59:43;7.70;99.90
45729;DHT22;31439;53.512;10.206;2023-04-25T08:02:09;7.70;99.90
45729;DHT22;31439;53.512;10.206;2023-04-25T08:04:35;7.90;99.90
45729;DHT22;31439;53.512;10.206;2023-04-25T08:07:00;7.90;99.90
45729;DHT22;31439;53.512;10.206;2023-04-25T08:09:26;8.00;99.90
45729;DHT22;31439;53.512;10.206;2023-04-25T08:11:52;8.10;99.90
45729;DHT22;31439;53.512;10.206;2023-04-25T08:14:18;8.10;99.90
45729;DHT22;31439;53.512;10.206;2023-04-25T08:16:43;8.30;99.90
45729;DHT22;31439;53.512;10.206;2023-04-25T08:19:10;8.30;99.90
45729;DHT22;31439;53.512;10.206;2023-04-25T08:21:38;8.30;99.90
45729;DHT22;31439;53.512;10.206;2023-04-25T08:24:04;8.40;99.90
45729;DHT22;31439;53.512;10.206;2023-04-25T08:26:29;8.70;99.90
45729;DHT22;31439;53.512;10.206;2023-04-25T08:28:55;8.80;99.90
45729;DHT22;31439;53.512;10.206;2023-04-25T08:31:21;8.80;99.90
45729;DHT22;31439;53.512;10.206;2023-04-25T08:33:47;8.50;99.90
45729;DHT22;31439;53.512;10.206;2023-04-25T08:36:12;8.40;99.90
45729;DHT22;31439;53.512;10.206;2023-04-25T08:38:40;8.30;99.90
45729;DHT22;31439;53.512;10.206;2023-04-25T08:41:06;8.30;99.90
45729;DHT22;31439;53.512;10.206;2023-04-25T08:43:32;8.40;99.90
45729;DHT22;31439;53.512;10.206;2023-04-25T08:46:00;8.40;99.90
45729;DHT22;31439;53.512;10.206;2023-04-25T08:48:27;8.30;99.90
45729;DHT22;31439;53.512;10.206;2023-04-25T08:50:57;8.30;99.90
45729;DHT22;31439;53.512;10.206;2023-04-25T08:53:28;8.30;99.90
45729;DHT22;31439;53.512;10.206;2023-04-25T08:55:56;8.30;99.90
45729;DHT22;31439;53.512;10.206;2023-04-25T08:58:22;8.50;99.90
45729;DHT22;31439;53.512;10.206;2023-04-25T09:00:49;8.40;99.90
45729;DHT22;31439;53.512;10.206;2023-04-25T09:03:16;8.30;99.90
45729;DHT22;31439;53.512;10.206;2023-04-25T09:05:42;8.30;99.90
45729;DHT22;31439;53.512;10.206;2023-04-25T09:08:10;8.30;99.90
45729;DHT22;31439;53.512;10.206;2023-04-25T09:10:40;8.50;99.90
45729;DHT22;31439;53.512;10.206;2023-04-25T09:13:06;8.70;99.90
45729;DHT22;31439;53.512;10.206;2023-04-25T09:15:49;8.80;99.90
45729;DHT22;31439;53.512;10.206;2023-04-25T09:18:29;8.70;99.90
45729;DHT22;31439;53.512;10.206;2023-04-25T09:21:09;8.70;99.90
45729;DHT22;31439;53.512;10.206;2023-04-25T09:23:44;8.70;99.90
45729;DHT22;31439;53.512;10.206;2023-04-25T09:26:22;8.60;99.90
45729;DHT22;31439;53.512;10.206;2023-04-25T09:28:48;8.40;99.90
45729;DHT22;31439;53.512;10.206;2023-04-25T09:31:24;8.40;99.90
45729;DHT22;31439;53.512;10.206;2023-04-25T09:33:59;8.40;99.90
45729;DHT22;31439;53.512;10.206;2023-04-25T09:36:27;8.10;99.90
45729;DHT22;31439;53.512;10.206;2023-04-25T09:38:52;8.20;99.90
45729;DHT22;31439;53.512;10.206;2023-04-25T09:41:23;8.20;99.90
45729;DHT22;31439;53.512;10.206;2023-04-25T09:43:49;8.30;99.90
45729;DHT22;31439;53.512;10.206;2023-04-25T09:46:16;8.30;99.90
45729;DHT22;31439;53.512;10.206;2023-04-25T09:48:49;8.40;99.90
45729;DHT22;31439;53.512;10.206;2023-04-25T09:51:19;8.50;99.90
45729;DHT22;31439;53.512;10.206;2023-04-25T09:53:46;8.60;99.90
45729;DHT22;31439;53.512;10.206;2023-04-25T09:56:12;9.00;99.90
45729;DHT22;31439;53.512;10.206;2023-04-25T09:58:40;9.10;99.90
45729;DHT22;31439;53.512;10.206;2023-04-25T10:01:09;9.00;99.90
45729;DHT22;31439;53.512;10.206;2023-04-25T10:03:37;8.90;99.90
45729;DHT22;31439;53.512;10.206;2023-04-25T10:06:08;8.50;99.90
45729;DHT22;31439;53.512;10.206;2023-04-25T10:08:37;8.40;99.90
45729;DHT22;31439;53.512;10.206;2023-04-25T10:11:05;8.30;99.90
45729;DHT22;31439;53.512;10.206;2023-04-25T10:13:33;8.30;99.90
45729;DHT22;31439;53.512;10.206;2023-04-25T10:16:00;8.50;99.90
45729;DHT22;31439;53.512;10.206;2023-04-25T10:18:27;8.60;99.90
45729;DHT22;31439;53.512;10.206;2023-04-25T10:21:01;8.70;99.90
45729;DHT22;31439;53.512;10.206;2023-04-25T10:23:29;8.70;99.90
45729;DHT22;31439;53.512;10.206;2023-04-25T10:25:56;8.90;99.90
45729;DHT22;31439;53.512;10.206;2023-04-25T10:28:22;9.00;99.90
45729;DHT22;31439;53.512;10.206;2023-04-25T10:31:06;9.10;99.90
45729;DHT22;31439;53.512;10.206;2023-04-25T10:33:37;9.30;99.90
45729;DHT22;31439;53.512;10.206;2023-04-25T10:36:20;9.50;99.90
45729;DHT22;31439;53.512;10.206;2023-04-25T10:38:50;9.60;99.90
45729;DHT22;31439;53.512;10.206;2023-04-25T10:41:18;9.70;99.90
45729;DHT22;31439;53.512;10.206;2023-04-25T10:43:45;9.60;99.90
45729;DHT22;31439;53.512;10.206;2023-04-25T10:46:23;9.70;99.90
45729;DHT22;31439;53.512;10.206;2023-04-25T10:48:57;9.80;99.90
45729;DHT22;31439;53.512;10.206;2023-04-25T10:51:32;9.80;99.90
45729;DHT22;31439;53.512;10.206;2023-04-25T10:54:06;9.90;99.90
45729;DHT22;31439;53.512;10.206;2023-04-25T10:56:33;10.00;99.90
45729;DHT22;31439;53.512;10.206;2023-04-25T10:59:08;10.00;99.90
45729;DHT22;31439;53.512;10.206;2023-04-25T11:04:02;9.70;99.90
45729;DHT22;31439;53.512;10.206;2023-04-25T11:09:36;9.90;99.90
45729;DHT22;31439;53.512;10.206;2023-04-25T11:12:03;10.00;99.90
45729;DHT22;31439;53.512;10.206;2023-04-25T11:14:30;10.00;99.90
45729;DHT22;31439;53.512;10.206;2023-04-25T11:16:57;9.90;99.90
45729;DHT22;31439;53.512;10.206;2023-04-25T11:19:24;9.80;99.90
45729;DHT22;31439;53.512;10.206;2023-04-25T11:21:55;9.70;99.90
45729;DHT22;31439;53.512;10.206;2023-04-25T11:24:27;9.60;99.90
45729;DHT22;31439;53.512;10.206;2023-04-25T11:26:52;9.60;99.90
45729;DHT22;31439;53.512;10.206;2023-04-25T11:29:18;9.50;99.90
45729;DHT22;31439;53.512;10.206;2023-04-25T11:31:46;9.50;99.90
45729;DHT22;31439;53.512;10.206;2023-04-25T11:34:17;9.70;99.90
45729;DHT22;31439;53.512;10.206;2023-04-25T11:36:45;10.00;99.90
45729;DHT22;31439;53.512;10.206;2023-04-25T11:39:11;10.30;99.90
45729;DHT22;31439;53.512;10.206;2023-04-25T11:41:37;10.60;99.90
45729;DHT22;31439;53.512;10.206;2023-04-25T11:44:04;10.80;99.90
45729;DHT22;31439;53.512;10.206;2023-04-25T11:46:30;11.10;99.90
45729;DHT22;31439;53.512;10.206;2023-04-25T11:48:55;11.00;99.90
45729;DHT22;31439;53.512;10.206;2023-04-25T11:51:22;10.80;99.90
45729;DHT22;31439;53.512;10.206;2023-04-25T11:53:48;10.40;99.90
45729;DHT22;31439;53.512;10.206;2023-04-25T11:56:13;10.00;99.90
45729;DHT22;31439;53.512;10.206;2023-04-25T11:59:14;9.10;99.90
45729;DHT22;31439;53.512;10.206;2023-04-25T12:01:48;8.90;99.90
45729;DHT22;31439;53.512;10.206;2023-04-25T12:04:19;9.00;99.90
45729;DHT22;31439;53.512;10.206;2023-04-25T12:06:47;9.00;99.90
45729;DHT22;31439;53.512;10.206;2023-04-25T12:09:16;9.10;99.90
45729;DHT22;31439;53.512;10.206;2023-04-25T12:11:45;9.20;99.90
45729;DHT22;31439;53.512;10.206;2023-04-25T12:14:11;9.30;99.90
45729;DHT22;31439;53.512;10.206;2023-04-25T12:16:44;9.40;99.90
45729;DHT22;31439;53.512;10.206;2023-04-25T12:19:14;9.80;99.90
45729;DHT22;31439;53.512;10.206;2023-04-25T12:21:40;9.80;99.90
45729;DHT22;31439;53.512;10.206;2023-04-25T12:24:15;9.70;99.90
45729;DHT22;31439;53.512;10.206;2023-04-25T12:26:52;10.00;99.90
45729;DHT22;31439;53.512;10.206;2023-04-25T12:29:24;10.20;99.90
45729;DHT22;31439;53.512;10.206;2023-04-25T12:31:51;10.40;99.90
45729;DHT22;31439;53.512;10.206;2023-04-25T12:34:18;10.50;99.90
45729;DHT22;31439;53.512;10.206;2023-04-25T12:36:43;10.70;99.90
45729;DHT22;31439;53.512;10.206;2023-04-25T12:41:43;10.70;99.90
45729;DHT22;31439;53.512;10.206;2023-04-25T12:44:10;10.50;99.90
45729;DHT22;31439;53.512;10.206;2023-04-25T12:46:36;10.10;99.90
45729;DHT22;31439;53.512;10.206;2023-04-25T12:49:02;10.10;99.90
45729;DHT22;31439;53.512;10.206;2023-04-25T12:51:29;10.50;99.90
45729;DHT22;31439;53.512;10.206;2023-04-25T12:53:55;10.70;99.90
45729;DHT22;31439;53.512;10.206;2023-04-25T12:56:20;10.60;99.90
45729;DHT22;31439;53.512;10.206;2023-04-25T12:58:46;10.50;99.90
45729;DHT22;31439;53.512;10.206;2023-04-25T13:01:14;10.70;99.90
45729;DHT22;31439;53.512;10.206;2023-04-25T13:03:40;10.70;99.90
45729;DHT22;31439;53.512;10.206;2023-04-25T13:06:06;10.50;99.90
45729;DHT22;31439;53.512;10.206;2023-04-25T13:08:32;10.40;99.90
45729;DHT22;31439;53.512;10.206;2023-04-25T13:10:58;10.70;99.90
45729;DHT22;31439;53.512;10.206;2023-04-25T13:13:24;10.90;99.90
45729;DHT22;31439;53.512;10.206;2023-04-25T13:15:49;10.70;99.90
45729;DHT22;31439;53.512;10.206;2023-04-25T13:18:15;10.20;99.90
45729;DHT22;31439;53.512;10.206;2023-04-25T13:20:41;9.90;99.90
45729;DHT22;31439;53.512;10.206;2023-04-25T13:23:06;9.90;99.90
45729;DHT22;31439;53.512;10.206;2023-04-25T13:25:32;10.00;99.90
45729;DHT22;31439;53.512;10.206;2023-04-25T13:27:58;9.80;99.90
45729;DHT22;31439;53.512;10.206;2023-04-25T13:30:24;9.80;99.90
45729;DHT22;31439;53.512;10.206;2023-04-25T13:32:49;9.60;99.90
45729;DHT22;31439;53.512;10.206;2023-04-25T13:35:17;9.30;99.90
45729;DHT22;31439;53.512;10.206;2023-04-25T13:37:43;9.20;99.90
45729;DHT22;31439;53.512;10.206;2023-04-25T13:40:10;8.70;99.90
45729;DHT22;31439;53.512;10.206;2023-04-25T13:42:39;8.50;99.90
45729;DHT22;31439;53.512;10.206;2023-04-25T13:45:06;8.30;99.90
45729;DHT22;31439;53.512;10.206;2023-04-25T13:47:32;8.30;99.90
45729;DHT22;31439;53.512;10.206;2023-04-25T13:49:58;8.30;99.90
45729;DHT22;31439;53.512;10.206;2023-04-25T13:52:24;8.50;99.90
45729;DHT22;31439;53.512;10.206;2023-04-25T13:54:51;8.70;99.90
45729;DHT22;31439;53.512;10.206;2023-04-25T13:57:17;9.20;99.90
45729;DHT22;31439;53.512;10.206;2023-04-25T13:59:46;9.60;99.90
45729;DHT22;31439;53.512;10.206;2023-04-25T14:02:12;9.90;99.90
45729;DHT22;31439;53.512;10.206;2023-04-25T14:04:38;10.00;99.90
45729;DHT22;31439;53.512;10.206;2023-04-25T14:07:03;9.70;99.90
45729;DHT22;31439;53.512;10.206;2023-04-25T14:09:30;9.30;99.90
45729;DHT22;31439;53.512;10.206;2023-04-25T14:11:56;8.80;99.90
45729;DHT22;31439;53.512;10.206;2023-04-25T14:14:22;8.30;99.90
45729;DHT22;31439;53.512;10.206;2023-04-25T14:16:49;7.90;99.90
45729;DHT22;31439;53.512;10.206;2023-04-25T14:19:16;7.70;99.90
45729;DHT22;31439;53.512;10.206;2023-04-25T14:21:42;7.70;99.90
45729;DHT22;31439;53.512;10.206;2023-04-25T14:24:09;7.80;99.90
45729;DHT22;31439;53.512;10.206;2023-04-25T14:26:36;7.80;99.90
45729;DHT22;31439;53.512;10.206;2023-04-25T14:29:03;7.80;99.90
45729;DHT22;31439;53.512;10.206;2023-04-25T14:31:28;7.80;99.90
45729;DHT22;31439;53.512;10.206;2023-04-25T14:33:54;8.10;99.90
45729;DHT22;31439;53.512;10.206;2023-04-25T14:36:20;8.40;99.90
45729;DHT22;31439;53.512;10.206;2023-04-25T14:38:46;8.60;99.90
45729;DHT22;31439;53.512;10.206;2023-04-25T14:41:12;8.80;99.90
45729;DHT22;31439;53.512;10.206;2023-04-25T14:43:38;9.10;99.90
45729;DHT22;31439;53.512;10.206;2023-04-25T14:46:05;9.30;99.90
45729;DHT22;31439;53.512;10.206;2023-04-25T14:48:32;9.50;99.90
45729;DHT22;31439;53.512;10.206;2023-04-25T14:50:57;9.60;99.90
45729;DHT22;31439;53.512;10.206;2023-04-25T14:53:25;9.60;99.90
45729;DHT22;31439;53.512;10.206;2023-04-25T14:55:51;9.60;99.90
45729;DHT22;31439;53.512;10.206;2023-04-25T14:58:16;9.80;99.90
45729;DHT22;31439;53.512;10.206;2023-04-25T15:00:45;10.00;99.90
45729;DHT22;31439;53.512;10.206;2023-04-25T15:03:11;10.40;99.90
45729;DHT22;31439;53.512;10.206;2023-04-25T15:05:38;10.40;99.90
45729;DHT22;31439;53.512;10.206;2023-04-25T15:08:04;10.50;99.90
45729;DHT22;31439;53.512;10.206;2023-04-25T15:10:30;10.60;99.90
45729;DHT22;31439;53.512;10.206;2023-04-25T15:12:56;10.40;99.90
45729;DHT22;31439;53.512;10.206;2023-04-25T15:15:22;10.30;99.90
45729;DHT22;31439;53.512;10.206;2023-04-25T15:17:49;10.20;99.90
45729;DHT22;31439;53.512;10.206;2023-04-25T15:20:15;10.30;99.90
45729;DHT22;31439;53.512;10.206;2023-04-25T15:22:42;10.10;99.90
45729;DHT22;31439;53.512;10.206;2023-04-25T15:25:08;9.80;99.90
45729;DHT22;31439;53.512;10.206;2023-04-25T15:27:35;9.60;99.90
45729;DHT22;31439;53.512;10.206;2023-04-25T15:30:06;9.40;99.90
45729;DHT22;31439;53.512;10.206;2023-04-25T15:32:33;9.40;99.90
45729;DHT22;31439;53.512;10.206;2023-04-25T15:35:02;9.40;99.90
45729;DHT22;31439;53.512;10.206;2023-04-25T15:37:28;9.70;99.90